Time;durP1;ratioP1;P1;durP2;ratioP2;P2;SDS_P1;SDS_P2;PMS_P1;PMS_P2;Temp;Humidity;BMP_temperature;BMP_pressure;BME280_temperature;BME280_humidity;BME280_pressure;Samples;Min_cycle;Max_cycle;Signal;HPM_P1;HPM_P2
2023/06/03 04:32:49;;;;;;;;;15.50;15.50;;;;;17.50;53.57;101321.47;4995593;28;45450;-77
2023/06/03 04:35:14;;;;;;;;;16.75;14.25;;;;;17.43;54.15;101321.03;4995206;28;45532;-76
2023/06/03 04:37:40;;;;;;;;;20.00;13.50;;;;;17.57;53.82;101337.25;4995493;28;46152;-77
2023/06/03 04:40:08;;;;;;;;;17.75;14.50;;;;;17.47;53.84;101327.09;4996455;28;45354;-77
2023/06/03 04:42:34;;;;;;;;;23.75;17.25;;;;;17.58;53.61;101330.84;4997073;28;45378;-78
2023/06/03 04:45:00;;;;;;;;;17.00;15.25;;;;;17.55;53.41;101331.03;4997292;28;45555;-78
2023/06/03 04:47:28;;;;;;;;;17.50;14.25;;;;;17.58;53.35;101332.69;4985060;28;45539;-75
2023/06/03 04:49:54;;;;;;;;;13.25;11.25;;;;;17.63;53.67;101350.44;4995495;28;45666;-74
2023/06/03 04:52:20;;;;;;;;;18.25;15.50;;;;;17.66;53.35;101352.06;4995787;28;45410;-75
2023/06/03 04:54:45;;;;;;;;;13.50;12.00;;;;;17.66;53.45;101347.53;4982246;28;45458;-76
2023/06/03 04:57:11;;;;;;;;;17.75;15.50;;;;;17.72;53.39;101352.53;4977751;28;45537;-77
2023/06/03 04:59:36;;;;;;;;;18.50;13.50;;;;;17.74;53.37;101350.59;4976035;28;45492;-76
2023/06/03 05:02:01;;;;;;;;;19.75;16.25;;;;;17.74;53.21;101358.72;4980289;28;45378;-77
2023/06/03 05:04:29;;;;;;;;;18.75;13.50;;;;;17.70;53.37;101354.47;4967745;28;47150;-75
2023/06/03 05:06:55;;;;;;;;;14.75;13.25;;;;;17.68;53.42;101356.44;4981981;28;46134;-75
2023/06/03 05:09:21;;;;;;;;;21.50;13.00;;;;;17.59;52.86;101345.28;4984530;28;45396;-75
2023/06/03 05:11:47;;;;;;;;;17.25;13.75;;;;;17.60;53.12;101356.03;4964625;28;45237;-75
2023/06/03 05:14:12;;;;;;;;;24.50;15.75;;;;;17.64;53.23;101362.13;4985058;28;45560;-76
2023/06/03 05:16:37;;;;;;;;;22.50;16.00;;;;;17.62;53.15;101358.66;4980970;28;46306;-76
2023/06/03 05:19:03;;;;;;;;;12.75;12.75;;;;;17.60;53.31;101357.88;4984815;28;45322;-76
2023/06/03 05:21:28;;;;;;;;;11.25;10.00;;;;;17.60;53.13;101353.31;4985974;28;45479;-76
2023/06/03 05:23:53;;;;;;;;;12.75;12.75;;;;;17.62;53.22;101358.66;4985520;28;49039;-74
2023/06/03 05:26:19;;;;;;;;;15.50;14.25;;;;;17.56;53.22;101349.06;4983345;28;46132;-76
2023/06/03 05:28:44;;;;;;;;;20.75;16.75;;;;;17.66;53.13;101357.50;4983243;28;45273;-76
2023/06/03 05:31:10;;;;;;;;;19.50;17.50;;;;;17.67;53.08;101368.25;4982952;28;45369;-75
2023/06/03 05:33:37;;;;;;;;;19.25;16.00;;;;;17.63;53.00;101358.56;4982344;28;45376;-75
2023/06/03 05:36:02;;;;;;;;;17.50;16.00;;;;;17.68;53.13;101363.69;4983702;28;46282;-74
2023/06/03 05:38:30;;;;;;;;;16.50;16.50;;;;;17.67;53.09;101360.13;4994833;28;45369;-76
2023/06/03 05:40:57;;;;;;;;;18.50;14.00;;;;;17.71;53.11;101358.94;4994425;28;47022;-75
2023/06/03 05:43:25;;;;;;;;;14.75;13.25;;;;;17.73;52.89;101357.00;4994568;28;45538;-77
2023/06/03 05:45:51;;;;;;;;;16.25;14.75;;;;;17.75;53.04;101356.91;4994529;28;46389;-76
2023/06/03 05:48:17;;;;;;;;;18.75;15.25;;;;;17.73;53.21;101357.00;4994735;28;45344;-76
2023/06/03 05:50:50;;;;;;;;;17.75;13.00;;;;;17.75;53.16;101355.06;4994594;28;45539;-77
2023/06/03 05:53:28;;;;;;;;;22.50;12.50;;;;;17.82;52.97;101366.38;4994298;28;45510;-77
2023/06/03 05:55:54;;;;;;;;;10.00;10.00;;;;;17.88;53.07;101362.34;4976416;28;47356;-76
2023/06/03 05:58:20;;;;;;;;;16.25;14.25;;;;;17.71;53.44;101337.22;4983956;28;45421;-79
2023/06/03 06:00:46;;;;;;;;;14.75;14.25;;;;;17.90;53.21;101366.72;4974439;28;45266;-77
2023/06/03 06:03:13;;;;;;;;;15.25;13.50;;;;;17.96;53.08;101370.84;4993704;28;45409;-75
2023/06/03 06:05:38;;;;;;;;;16.50;14.50;;;;;17.99;52.69;101366.09;4994459;28;45504;-76
2023/06/03 06:08:04;;;;;;;;;14.00;14.00;;;;;18.07;52.55;101373.72;4994454;28;45325;-76
2023/06/03 06:10:31;;;;;;;;;18.00;14.25;;;;;18.12;52.80;101374.28;4994333;28;45555;-75
2023/06/03 06:12:56;;;;;;;;;17.25;14.00;;;;;18.12;52.57;101367.00;4994580;28;45454;-78
2023/06/03 06:15:22;;;;;;;;;18.25;16.00;;;;;18.22;52.33;101383.53;4994682;28;46434;-76
2023/06/03 06:17:47;;;;;;;;;17.00;14.00;;;;;18.22;52.40;101369.09;4994973;28;45453;-73
2023/06/03 06:20:13;;;;;;;;;21.25;14.50;;;;;18.29;52.20;101367.75;4960252;28;45314;-75
2023/06/03 06:22:38;;;;;;;;;17.75;14.25;;;;;18.32;51.69;101371.09;4976737;28;45768;-74
2023/06/03 06:25:06;;;;;;;;;17.50;16.75;;;;;18.31;51.67;101374.78;4994055;28;46136;-73
2023/06/03 06:27:31;;;;;;;;;16.75;13.25;;;;;18.29;51.88;101375.88;4994301;28;45444;-75
2023/06/03 06:29:57;;;;;;;;;14.25;13.00;;;;;18.27;51.92;101365.13;4994337;28;45298;-75
2023/06/03 06:32:25;;;;;;;;;19.50;14.75;;;;;18.35;51.76;101375.47;4994608;28;45355;-75
2023/06/03 06:34:51;;;;;;;;;15.25;14.25;;;;;18.35;51.64;101384.47;4977099;28;46377;-72
2023/06/03 06:37:18;;;;;;;;;13.25;9.00;;;;;18.33;51.99;101378.28;4992063;28;45334;-72
2023/06/03 06:39:54;;;;;;;;;19.50;14.00;;;;;18.35;51.93;101375.47;4987901;28;45485;-74
2023/06/03 06:42:46;;;;;;;;;15.25;13.25;;;;;18.38;52.17;101380.66;4970828;28;45485;-76
2023/06/03 06:45:20;;;;;;;;;16.75;13.75;;;;;18.43;51.88;101375.81;4972595;28;45417;-75
2023/06/03 06:47:46;;;;;;;;;22.50;16.75;;;;;18.47;51.61;101378.19;4993328;28;45532;-76
2023/06/03 06:50:41;;;;;;;;;14.00;14.00;;;;;18.49;51.38;101376.25;4982415;28;45826;-75
2023/06/03 06:53:06;;;;;;;;;17.50;13.25;;;;;18.43;51.25;101362.22;4964259;28;45655;-77
2023/06/03 06:55:41;;;;;;;;;17.75;12.75;;;;;18.59;51.48;101379.22;4993799;28;50375;-79
2023/06/03 06:58:10;;;;;;;;;22.25;14.50;;;;;18.60;50.83;101375.53;4985007;28;45405;-74
2023/06/03 07:00:37;;;;;;;;;14.75;13.75;;;;;18.49;51.21;101362.66;4972674;28;45557;-78
2023/06/03 07:03:03;;;;;;;;;13.75;11.75;;;;;18.64;51.13;101381.63;4993981;28;45270;-75
2023/06/03 07:05:28;;;;;;;;;13.00;12.00;;;;;18.66;51.29;101379.66;4993473;28;45999;-74
2023/06/03 07:07:53;;;;;;;;;17.50;14.00;;;;;18.70;51.00;101381.22;4984743;28;45171;-73
2023/06/03 07:10:21;;;;;;;;;16.00;15.25;;;;;18.75;50.49;101381.75;4975712;28;45467;-74
2023/06/03 07:12:51;;;;;;;;;12.75;11.50;;;;;18.80;50.74;101390.44;4993719;28;45569;-77
2023/06/03 07:15:17;;;;;;;;;14.50;13.00;;;;;18.77;50.42;101377.97;4991890;28;46941;-72
2023/06/03 07:17:48;;;;;;;;;12.50;12.50;;;;;18.85;50.61;101380.13;4976480;28;45481;-76
2023/06/03 07:20:20;;;;;;;;;11.25;9.00;;;;;18.92;50.57;101380.56;4993986;28;45416;-77
2023/06/03 07:22:45;;;;;;;;;16.75;13.25;;;;;18.85;50.63;101372.84;4997725;28;45503;-77
2023/06/03 07:25:33;;;;;;;;;14.00;11.00;;;;;18.72;50.38;101339.34;4996831;28;45504;-84
2023/06/03 07:27:59;;;;;;;;;15.75;15.50;;;;;19.05;50.55;101381.44;4992311;28;45420;-77
2023/06/03 07:30:25;;;;;;;;;14.50;13.25;;;;;19.09;49.98;101383.81;4983918;28;45494;-77
2023/06/03 07:32:58;;;;;;;;;14.50;10.00;;;;;19.15;49.97;101391.53;4976233;28;45444;-77
2023/06/03 07:35:24;;;;;;;;;15.00;12.75;;;;;19.16;49.38;101379.69;4973991;28;46158;-76
2023/06/03 07:37:49;;;;;;;;;15.25;11.50;;;;;19.16;49.32;101367.94;4996500;28;47192;-75
2023/06/03 07:40:15;;;;;;;;;12.25;12.25;;;;;19.25;49.40;101370.00;4979210;28;46353;-78
2023/06/03 07:42:46;;;;;;;;;9.50;9.50;;;;;19.27;49.45;101371.63;4996331;28;45499;-77
2023/06/03 07:45:15;;;;;;;;;12.75;11.25;;;;;19.37;49.64;101379.13;4997004;28;45896;-77
2023/06/03 07:47:41;;;;;;;;;9.75;9.00;;;;;19.31;49.26;101366.00;4959582;28;45264;-77
2023/06/03 07:50:22;;;;;;;;;8.25;8.25;;;;;19.41;49.52;101383.34;4976885;28;45489;-76
2023/06/03 07:52:58;;;;;;;;;12.50;12.50;;;;;19.51;49.20;101385.34;4993567;28;46153;-76
2023/06/03 07:55:23;;;;;;;;;15.50;10.25;;;;;19.55;48.97;101378.69;4996418;28;45654;-78
2023/06/03 07:57:48;;;;;;;;;15.00;13.50;;;;;19.60;48.55;101376.50;4971891;28;45460;-78
2023/06/03 08:00:17;;;;;;;;;15.25;12.00;;;;;19.55;48.33;101354.22;4986175;28;45444;-77
2023/06/03 08:02:43;;;;;;;;;13.50;12.00;;;;;19.70;48.26;101378.53;4962526;28;46509;-78
2023/06/03 08:05:08;;;;;;;;;11.50;11.50;;;;;19.57;48.21;101348.63;4991415;28;46309;-78
2023/06/03 08:07:34;;;;;;;;;13.50;12.00;;;;;19.69;48.33;101358.63;4996459;28;45366;-75
2023/06/03 08:09:59;;;;;;;;;11.75;11.75;;;;;19.72;48.30;101361.13;4996286;28;45543;-79
2023/06/03 08:12:34;;;;;;;;;14.00;12.25;;;;;19.79;48.13;101367.84;4996403;28;45443;-77
2023/06/03 08:15:01;;;;;;;;;19.00;13.00;;;;;19.89;48.09;101378.91;4978555;28;46068;-76
2023/06/03 08:17:43;;;;;;;;;20.00;13.00;;;;;19.84;48.43;101365.63;4996735;28;45339;-83
2023/06/03 08:20:10;;;;;;;;;16.00;14.25;;;;;19.75;48.35;101335.53;4978511;28;45425;-80
2023/06/03 08:22:43;;;;;;;;;14.00;13.25;;;;;20.01;48.04;101373.41;4985740;28;46088;-80
2023/06/03 08:25:08;;;;;;;;;16.00;12.50;;;;;20.01;47.85;101362.53;4980479;28;46760;-78
2023/06/03 08:27:36;;;;;;;;;14.00;11.00;;;;;19.81;47.59;101318.75;4996654;28;45435;-81
2023/06/03 08:30:06;;;;;;;;;16.00;13.75;;;;;20.12;47.49;101363.56;4978160;28;45481;-81
2023/06/03 08:32:38;;;;;;;;;12.75;10.25;;;;;20.18;47.82;101360.38;4996136;28;45350;-82
2023/06/03 08:35:03;;;;;;;;;16.75;12.00;;;;;20.14;47.78;101340.69;4949758;28;47266;-78
2023/06/03 08:37:31;;;;;;;;;14.00;12.75;;;;;20.27;47.36;101352.38;4996217;28;45247;-78
2023/06/03 08:39:57;;;;;;;;;14.00;12.50;;;;;20.25;47.10;101346.16;4997347;28;45589;-79
2023/06/03 08:42:28;;;;;;;;;15.00;12.50;;;;;20.36;46.78;101362.59;4995813;28;45306;-76
2023/06/03 08:45:05;;;;;;;;;14.00;11.75;;;;;20.34;46.86;101352.78;4995837;28;45379;-75
2023/06/03 08:47:49;;;;;;;;;9.00;6.50;;;;;20.43;47.08;101360.25;4982007;28;45301;-79
2023/06/03 08:50:20;;;;;;;;;11.00;11.00;;;;;20.46;46.69;101351.84;4995100;28;45577;-77
2023/06/03 08:52:47;;;;;;;;;15.50;12.25;;;;;20.50;46.58;101347.06;4994946;28;45347;-76
2023/06/03 08:55:16;;;;;;;;;16.00;12.25;;;;;20.54;47.05;101349.41;4995439;28;46699;-77
2023/06/03 08:58:16;;;;;;;;;12.25;12.25;;;;;20.44;46.79;101323.88;4989529;28;45285;-76
2023/06/03 09:00:42;;;;;;;;;12.00;11.00;;;;;20.58;46.72;101339.16;4992416;28;45513;-77
2023/06/03 09:03:11;;;;;;;;;9.75;7.25;;;;;20.64;46.62;101347.72;4995280;28;45603;-74
2023/06/03 09:05:37;;;;;;;;;12.75;10.75;;;;;20.67;46.56;101342.00;4977518;28;48390;-77
2023/06/03 09:08:05;;;;;;;;;12.00;9.00;;;;;20.77;46.30;101351.19;4995489;28;45323;-76
2023/06/03 09:10:31;;;;;;;;;11.50;10.00;;;;;20.81;46.36;101345.50;4994957;28;45513;-79
2023/06/03 09:13:00;;;;;;;;;9.00;7.75;;;;;20.85;46.33;101349.72;4995579;28;45382;-73
2023/06/03 09:15:28;;;;;;;;;11.25;9.50;;;;;20.89;46.05;101351.22;4994554;28;46288;-75
2023/06/03 09:17:53;;;;;;;;;11.00;11.00;;;;;20.87;46.20;101334.97;4995353;28;45338;-77
2023/06/03 09:20:19;;;;;;;;;11.25;10.25;;;;;20.92;45.88;101348.25;4994742;28;45312;-75
2023/06/03 09:22:48;;;;;;;;;11.00;10.00;;;;;20.94;45.40;101338.94;4995163;28;45858;-76
2023/06/03 09:25:14;;;;;;;;;10.50;8.00;;;;;20.94;45.20;101329.91;4994641;28;46327;-76
2023/06/03 09:27:40;;;;;;;;;10.50;10.00;;;;;20.97;46.17;101329.66;4995261;28;45383;-77
2023/06/03 09:30:06;;;;;;;;;11.25;9.00;;;;;21.05;45.18;101338.09;4977080;28;45551;-76
2023/06/03 09:32:36;;;;;;;;;12.50;9.50;;;;;21.08;45.01;101341.47;4994957;28;45599;-76
2023/06/03 09:35:05;;;;;;;;;12.00;11.00;;;;;21.02;45.31;101322.84;4982771;28;45432;-78
2023/06/03 09:37:34;;;;;;;;;12.75;9.00;;;;;21.20;45.22;101361.44;4994746;28;45322;-75
2023/06/03 09:40:03;;;;;;;;;12.75;10.50;;;;;21.25;44.43;101358.34;4995383;28;45233;-76
2023/06/03 09:42:45;;;;;;;;;12.00;10.50;;;;;21.18;44.79;101340.75;4994581;28;45535;-77
2023/06/03 09:45:40;;;;;;;;;11.75;9.00;;;;;21.26;44.16;101355.50;4994711;28;45488;-77
2023/06/03 09:48:05;;;;;;;;;10.00;9.00;;;;;21.28;44.47;101356.22;4981788;28;45401;-79
2023/06/03 09:50:32;;;;;;;;;11.75;10.75;;;;;21.28;44.60;101339.84;4994540;28;45488;-78
2023/06/03 09:52:58;;;;;;;;;11.75;9.50;;;;;21.36;44.18;101341.97;4975602;28;45454;-76
2023/06/03 09:55:34;;;;;;;;;11.50;10.00;;;;;21.42;44.17;101345.06;4969606;28;46402;-79
2023/06/03 09:58:04;;;;;;;;;7.25;7.25;;;;;21.49;43.86;101354.50;4988596;28;45486;-79
2023/06/03 10:00:32;;;;;;;;;12.25;10.25;;;;;21.55;44.21;101344.91;4973909;28;45398;-78
2023/06/03 10:03:08;;;;;;;;;8.00;7.25;;;;;21.49;43.77;101332.66;4996100;28;45602;-79
2023/06/03 10:05:34;;;;;;;;;8.00;7.75;;;;;21.40;43.80;101310.72;4995656;28;45603;-79
2023/06/03 10:08:02;;;;;;;;;11.75;8.50;;;;;21.45;44.29;101312.06;4997241;28;45569;-80
2023/06/03 10:10:27;;;;;;;;;10.00;8.25;;;;;21.62;43.83;101327.03;4996843;28;45436;-78
2023/06/03 10:12:53;;;;;;;;;10.25;9.00;;;;;21.52;43.76;101321.47;4996775;28;45374;-80
2023/06/03 10:15:34;;;;;;;;;10.00;8.75;;;;;21.69;43.73;101336.44;4994604;28;46717;-75
2023/06/03 10:18:00;;;;;;;;;11.00;9.75;;;;;21.75;43.73;101337.81;4996686;28;45381;-76
2023/06/03 10:20:35;;;;;;;;;12.50;10.75;;;;;21.83;43.54;101338.91;4967242;28;45328;-77
2023/06/03 10:23:02;;;;;;;;;7.75;6.75;;;;;21.84;43.70;101329.75;4970599;28;46622;-79
2023/06/03 10:25:33;;;;;;;;;10.50;9.75;;;;;21.85;43.38;101325.16;4994274;28;46016;-81
2023/06/03 10:27:59;;;;;;;;;13.50;10.75;;;;;21.90;43.44;101331.06;4976619;28;45326;-76
2023/06/03 10:30:27;;;;;;;;;7.50;7.50;;;;;21.90;43.36;101322.88;4976344;28;45410;-78
2023/06/03 10:32:57;;;;;;;;;10.75;6.50;;;;;21.90;42.89;101317.41;4993559;28;46806;-78
2023/06/03 10:35:23;;;;;;;;;10.00;9.25;;;;;21.89;42.16;101312.97;4982264;28;45544;-80
2023/06/03 10:37:49;;;;;;;;;8.75;7.50;;;;;22.04;41.90;101333.53;4993429;28;45538;-76
2023/06/03 10:40:15;;;;;;;;;11.50;9.00;;;;;21.88;41.39;101295.72;4993405;28;45338;-80
2023/06/03 10:42:40;;;;;;;;;9.50;8.50;;;;;22.07;41.44;101316.03;4992366;28;45594;-75
2023/06/03 10:45:06;;;;;;;;;11.00;9.50;;;;;22.12;41.44;101319.22;4973535;28;47214;-78
2023/06/03 10:47:34;;;;;;;;;14.75;9.25;;;;;22.16;41.72;101318.84;4992107;28;45546;-77
2023/06/03 10:50:35;;;;;;;;;10.25;8.50;;;;;22.18;40.75;101313.25;4994062;28;45875;-79
2023/06/03 10:53:38;;;;;;;;;10.75;9.25;;;;;22.29;41.27;101326.00;4954486;28;45768;-76
2023/06/03 10:56:28;;;;;;;;;10.75;9.75;;;;;22.31;40.72;101321.25;4989925;28;46147;-81
2023/06/03 10:59:11;;;;;;;;;10.75;10.50;;;;;22.37;40.34;101321.59;4982126;28;45505;-79
2023/06/03 11:02:09;;;;;;;;;13.00;11.00;;;;;22.45;40.24;101323.69;4997731;28;45203;-76
2023/06/03 11:04:36;;;;;;;;;6.75;6.75;;;;;22.48;40.17;101318.81;4974444;28;45607;-77
2023/06/03 11:07:03;;;;;;;;;9.00;9.00;;;;;22.58;39.60;101329.81;4978102;28;47650;-73
2023/06/03 11:09:41;;;;;;;;;11.75;9.00;;;;;22.57;39.64;101317.13;4997429;28;45814;-72
2023/06/03 11:12:13;;;;;;;;;11.75;9.50;;;;;22.71;40.46;101325.03;4999587;28;45385;-75
2023/06/03 11:14:42;;;;;;;;;11.25;10.75;;;;;22.78;39.95;101325.38;4983117;28;46118;-75
2023/06/03 11:17:11;;;;;;;;;9.50;8.75;;;;;22.86;39.12;101322.81;5002315;28;47345;-79
2023/06/03 11:19:45;;;;;;;;;10.25;8.50;;;;;22.93;39.33;101313.94;5005815;28;45595;-77
2023/06/03 11:22:12;;;;;;;;;12.00;8.00;;;;;23.04;39.23;101312.13;4999262;28;45226;-76
2023/06/03 11:24:37;;;;;;;;;12.25;11.25;;;;;23.13;38.39;101319.50;4978950;28;46170;-74
2023/06/03 11:27:21;;;;;;;;;13.00;9.75;;;;;23.17;38.99;101321.81;4995458;28;45673;-77
2023/06/03 11:29:46;;;;;;;;;11.25;9.25;;;;;23.24;38.82;101316.66;4997417;28;45360;-72
2023/06/03 11:32:15;;;;;;;;;12.75;10.50;;;;;23.31;38.31;101312.38;4996759;28;45301;-74
2023/06/03 11:34:42;;;;;;;;;11.25;10.25;;;;;23.42;38.89;101308.66;4983198;28;45569;-76
2023/06/03 11:37:07;;;;;;;;;9.50;6.50;;;;;23.50;38.72;101317.06;4996437;28;45412;-75
2023/06/03 11:40:05;;;;;;;;;12.25;12.00;;;;;23.60;37.86;101305.16;4996466;28;45321;-74
2023/06/03 11:42:51;;;;;;;;;13.00;9.50;;;;;23.57;38.62;101283.53;4996741;28;45582;-79
2023/06/03 11:45:16;;;;;;;;;13.00;12.00;;;;;23.81;37.54;101309.66;4995878;28;45526;-76
2023/06/03 11:48:04;;;;;;;;;10.25;10.25;;;;;23.91;37.46;101297.69;4996281;28;45287;-75
2023/06/03 11:50:53;;;;;;;;;11.50;9.75;;;;;23.96;38.18;101280.84;4996389;28;45381;-76
2023/06/03 11:53:35;;;;;;;;;13.75;10.00;;;;;24.13;36.90;101286.47;4996698;28;45402;-75
2023/06/03 11:56:08;;;;;;;;;11.50;11.50;;;;;24.18;36.81;101299.72;4996330;28;45342;-76
2023/06/03 11:58:34;;;;;;;;;10.00;7.75;;;;;24.29;35.92;101298.75;4984322;28;46234;-75
2023/06/03 12:01:17;;;;;;;;;13.50;12.75;;;;;24.40;36.03;101295.88;4993998;28;45345;-76
2023/06/03 12:03:59;;;;;;;;;10.75;9.00;;;;;24.32;35.41;101263.72;4996455;28;45377;-85
2023/06/03 12:06:25;;;;;;;;;10.25;7.25;;;;;24.55;34.90;101291.66;4995822;28;45495;-78
2023/06/03 12:08:51;;;;;;;;;11.00;10.25;;;;;24.48;35.18;101257.63;4978076;28;47580;-80
2023/06/03 12:11:27;;;;;;;;;9.75;9.75;;;;;24.74;34.75;101277.91;4978201;28;45373;-77
2023/06/03 12:13:53;;;;;;;;;11.75;11.50;;;;;24.86;35.22;101284.91;4996202;28;45531;-76
2023/06/03 12:16:30;;;;;;;;;6.00;5.25;;;;;24.93;34.61;101270.63;4996166;28;45531;-75
2023/06/03 12:18:55;;;;;;;;;14.25;11.50;;;;;25.10;34.39;101281.69;4996384;28;45429;-77
2023/06/03 12:21:22;;;;;;;;;13.50;7.50;;;;;25.10;34.36;101267.09;4995797;28;45294;-76
2023/06/03 12:23:47;;;;;;;;;8.75;8.75;;;;;25.31;34.90;101283.31;4978354;28;45474;-76
2023/06/03 12:26:13;;;;;;;;;10.75;10.25;;;;;25.33;34.89;101262.94;4995733;28;45267;-75
2023/06/03 12:28:38;;;;;;;;;7.75;7.50;;;;;25.51;34.86;101284.97;4996162;28;45388;-76
2023/06/03 12:31:14;;;;;;;;;9.00;8.00;;;;;25.53;34.37;101249.94;4995844;28;45346;-78
2023/06/03 12:33:44;;;;;;;;;10.00;7.50;;;;;25.79;34.50;101267.44;4988022;28;45313;-76
2023/06/03 12:36:10;;;;;;;;;9.50;9.00;;;;;25.94;33.45;101267.78;4990991;28;45461;-75
2023/06/03 12:38:59;;;;;;;;;9.25;9.00;;;;;26.05;33.72;101270.25;4995807;28;45475;-77
2023/06/03 12:41:29;;;;;;;;;10.00;10.00;;;;;26.18;33.45;101269.88;4995552;28;45405;-79
2023/06/03 12:43:59;;;;;;;;;9.50;8.50;;;;;26.31;32.69;101267.59;4978041;28;45381;-74
2023/06/03 12:46:24;;;;;;;;;10.50;9.75;;;;;26.40;31.91;101271.28;4995807;28;45499;-75
2023/06/03 12:48:50;;;;;;;;;10.75;9.25;;;;;26.49;32.56;101260.19;4995500;28;45373;-73
2023/06/03 12:51:28;;;;;;;;;9.25;9.25;;;;;26.56;31.68;101271.41;4988995;28;45381;-74
2023/06/03 12:53:55;;;;;;;;;12.00;9.75;;;;;26.61;31.39;101255.28;4977901;28;45351;-72
2023/06/03 12:56:23;;;;;;;;;11.00;10.00;;;;;26.70;31.79;101252.44;4990774;28;45624;-74
2023/06/03 12:58:49;;;;;;;;;10.50;9.00;;;;;26.71;32.21;101253.31;4976982;28;45575;-79
2023/06/03 13:01:15;;;;;;;;;11.00;8.25;;;;;26.62;32.39;101246.03;4977572;28;45455;-80
2023/06/03 13:03:40;;;;;;;;;12.00;8.00;;;;;26.74;31.92;101259.31;4984851;28;45576;-77
2023/06/03 13:06:06;;;;;;;;;11.00;8.25;;;;;26.77;31.56;101254.53;4980564;28;45485;-79
2023/06/03 13:08:31;;;;;;;;;9.25;7.50;;;;;26.71;32.08;101234.88;4988913;28;45854;-79
2023/06/03 13:10:56;;;;;;;;;8.00;8.00;;;;;26.78;31.62;101231.50;4983609;28;45409;-79
2023/06/03 13:13:22;;;;;;;;;9.50;7.00;;;;;26.74;31.50;101239.19;4986129;28;46072;-77
2023/06/03 13:15:47;;;;;;;;;10.50;8.75;;;;;26.87;31.55;101258.03;4996417;28;45392;-79
2023/06/03 13:18:12;;;;;;;;;12.00;8.50;;;;;26.92;31.26;101250.16;4995413;28;45435;-76
2023/06/03 13:20:37;;;;;;;;;8.25;8.25;;;;;27.01;30.98;101257.44;4995415;28;49408;-75
2023/06/03 13:23:04;;;;;;;;;9.25;9.25;;;;;27.00;30.17;101252.97;4995402;28;45498;-77
2023/06/03 13:25:29;;;;;;;;;8.00;6.50;;;;;27.04;31.51;101254.38;4977750;28;45361;-77
2023/06/03 13:27:54;;;;;;;;;12.00;11.00;;;;;27.06;29.90;101238.53;4977842;28;47113;-78
2023/06/03 13:30:20;;;;;;;;;9.75;8.25;;;;;27.04;30.59;101246.13;4995266;28;45526;-73
2023/06/03 13:32:45;;;;;;;;;13.50;7.50;;;;;27.16;30.46;101249.41;4994556;28;45394;-76
2023/06/03 13:35:11;;;;;;;;;8.00;8.00;;;;;27.23;30.63;101244.97;4982807;28;45329;-77
2023/06/03 13:37:37;;;;;;;;;11.00;7.75;;;;;27.32;30.08;101243.97;4995497;28;45323;-74
2023/06/03 13:40:03;;;;;;;;;11.75;9.25;;;;;27.34;29.67;101222.66;4995461;28;45503;-77
2023/06/03 13:42:29;;;;;;;;;10.00;7.25;;;;;27.47;29.38;101239.56;4996014;28;45334;-75
2023/06/03 13:44:55;;;;;;;;;9.00;7.75;;;;;27.48;29.83;101235.75;4994824;28;46121;-77
2023/06/03 13:47:20;;;;;;;;;6.50;6.25;;;;;27.55;29.24;101236.88;4994424;28;45313;-76
2023/06/03 13:49:45;;;;;;;;;8.75;8.75;;;;;27.56;29.53;101215.69;4994621;28;45349;-82
2023/06/03 13:52:11;;;;;;;;;8.75;8.75;;;;;27.58;29.02;101210.84;4995624;28;45374;-76
2023/06/03 13:54:36;;;;;;;;;7.75;6.50;;;;;27.73;28.71;101240.31;4995104;28;45485;-76
2023/06/03 13:57:01;;;;;;;;;8.25;8.25;;;;;27.60;29.17;101206.91;4976690;28;47661;-79
2023/06/03 13:59:27;;;;;;;;;8.75;6.50;;;;;27.77;28.22;101227.94;4982935;28;45373;-78
2023/06/03 14:01:53;;;;;;;;;8.75;7.50;;;;;27.84;28.57;101230.88;4995585;28;45510;-77
2023/06/03 14:04:19;;;;;;;;;10.25;5.75;;;;;27.88;28.63;101217.63;4994333;28;45472;-74
2023/06/03 14:06:44;;;;;;;;;8.00;8.00;;;;;27.69;29.11;101194.00;4976737;28;45802;-80
2023/06/03 14:09:10;;;;;;;;;11.50;9.50;;;;;27.93;29.27;101220.72;4977054;28;45418;-77
2023/06/03 14:11:35;;;;;;;;;12.00;8.00;;;;;27.92;29.54;101211.59;4994991;28;45313;-77
2023/06/03 14:14:01;;;;;;;;;9.50;8.00;;;;;27.92;29.28;101196.94;4995102;28;45327;-78
2023/06/03 14:16:26;;;;;;;;;11.25;7.25;;;;;28.10;28.64;101215.03;4977738;28;46851;-80
2023/06/03 14:18:53;;;;;;;;;9.75;8.75;;;;;28.17;28.66;101221.63;4995132;28;45386;-77
2023/06/03 14:21:19;;;;;;;;;9.75;6.75;;;;;28.21;28.01;101206.47;4986822;28;45536;-74
2023/06/03 14:23:44;;;;;;;;;8.25;6.75;;;;;28.21;27.60;101208.34;4992599;28;45575;-77
2023/06/03 14:26:10;;;;;;;;;7.25;7.00;;;;;28.30;27.58;101207.31;4980551;28;47460;-78
2023/06/03 14:28:35;;;;;;;;;7.00;7.00;;;;;28.22;27.48;101190.78;4998317;28;50175;-78
2023/06/03 14:31:01;;;;;;;;;10.00;7.50;;;;;28.32;27.73;101202.50;4998309;28;46651;-82
2023/06/03 14:33:26;;;;;;;;;7.25;7.00;;;;;28.38;27.95;101211.97;4975374;28;45418;-78
2023/06/03 14:35:52;;;;;;;;;8.00;8.00;;;;;28.36;28.17;101203.84;4973087;28;47107;-81
2023/06/03 14:38:20;;;;;;;;;6.50;6.50;;;;;28.38;29.08;101211.97;4997117;28;45465;-77
2023/06/03 14:40:46;;;;;;;;;12.00;7.50;;;;;28.49;28.57;101204.19;4997935;28;45534;-78
2023/06/03 14:43:12;;;;;;;;;7.00;7.00;;;;;28.54;28.75;101190.72;4997413;28;45398;-77
2023/06/03 14:45:37;;;;;;;;;7.75;6.00;;;;;28.69;27.76;101201.88;4979757;28;48532;-79
2023/06/03 14:48:03;;;;;;;;;9.50;7.50;;;;;28.75;27.79;101181.00;4997496;28;51105;-75
2023/06/03 14:50:30;;;;;;;;;10.75;6.50;;;;;28.89;26.85;101175.63;4997543;28;45162;-78
2023/06/03 14:52:55;;;;;;;;;8.50;6.25;;;;;28.93;26.72;101187.16;4997142;28;45428;-78
2023/06/03 14:55:20;;;;;;;;;6.50;6.00;;;;;28.94;27.41;101178.72;4997178;28;45441;-76
2023/06/03 14:57:46;;;;;;;;;5.00;5.00;;;;;28.89;26.97;101169.25;4991218;28;45374;-79
2023/06/03 15:00:11;;;;;;;;;7.00;6.25;;;;;29.03;27.38;101179.53;4990640;28;45378;-77
2023/06/03 15:02:37;;;;;;;;;7.00;7.00;;;;;29.04;26.71;101177.63;4997148;28;45634;-75
2023/06/03 15:05:02;;;;;;;;;6.75;6.00;;;;;29.07;27.21;101172.63;4979152;28;53628;-77
2023/06/03 15:07:28;;;;;;;;;7.50;5.00;;;;;29.08;27.14;101165.22;4997066;28;45440;-79
2023/06/03 15:09:53;;;;;;;;;8.00;7.50;;;;;29.14;26.95;101151.53;4997445;28;45293;-77
2023/06/03 15:12:18;;;;;;;;;5.50;5.50;;;;;29.22;27.38;101147.84;4997172;28;45489;-77
2023/06/03 15:14:44;;;;;;;;;8.00;6.25;;;;;29.26;26.41;101163.03;4997829;28;45379;-77
2023/06/03 15:17:10;;;;;;;;;5.25;5.25;;;;;29.17;26.49;101144.78;4992569;28;45512;-80
2023/06/03 15:19:35;;;;;;;;;6.25;5.25;;;;;29.18;26.42;101152.00;4978600;28;45447;-80
2023/06/03 15:22:01;;;;;;;;;5.75;5.75;;;;;29.17;26.32;101137.38;4996700;28;45488;-77
2023/06/03 15:24:26;;;;;;;;;8.75;5.00;;;;;29.22;26.59;101148.72;4997318;28;46067;-79
2023/06/03 15:26:51;;;;;;;;;6.50;6.50;;;;;29.28;26.01;101144.34;4997424;28;45509;-80
2023/06/03 15:29:17;;;;;;;;;7.00;5.25;;;;;29.32;25.77;101149.34;4997477;28;45470;-76
2023/06/03 15:31:43;;;;;;;;;5.00;5.00;;;;;29.52;25.73;101151.69;4996750;28;45176;-77
2023/06/03 15:34:08;;;;;;;;;6.75;6.75;;;;;29.57;24.86;101144.56;4985283;28;45869;-76
2023/06/03 15:36:34;;;;;;;;;4.00;4.00;;;;;29.71;24.95;101151.16;4983626;28;45219;-76
2023/06/03 15:38:59;;;;;;;;;6.00;5.75;;;;;29.85;25.32;101146.75;4959571;28;45185;-78
2023/06/03 15:41:26;;;;;;;;;7.50;5.75;;;;;29.98;25.66;101158.91;4995056;28;45464;-80
2023/06/03 15:43:54;;;;;;;;;7.75;6.25;;;;;30.13;25.42;101149.78;4996837;28;45381;-77
2023/06/03 15:46:23;;;;;;;;;6.50;6.50;;;;;30.26;25.46;101137.06;4996767;28;45405;-78
2023/06/03 15:48:48;;;;;;;;;6.25;5.50;;;;;30.40;24.73;101147.25;4997084;28;45306;-80
2023/06/03 15:51:15;;;;;;;;;7.00;5.75;;;;;30.54;25.19;101139.22;4996329;28;45332;-79
2023/06/03 15:53:40;;;;;;;;;5.50;4.00;;;;;30.51;24.01;101114.63;4997003;28;45402;-75
2023/06/03 15:56:06;;;;;;;;;5.75;4.75;;;;;30.70;24.13;101130.72;4996356;28;45369;-76